KOLE/OLE METAR and TAF weather

Enter ICAO airport designator
Station Type Date Time Source
KOLE METAR 2020/07/11 04:15 UTC NOAA

KOLE 110415Z AUTO 22003KT 10SM CLR 21/17 A2979 RMK AO2


Station Type Date Time Source
KOLE Decoded METAR 2020/07/11 04:15 UTC NOAA

Olean Municipal, NY, United States (KOLE) 42-14N 078-22W
Jul 11, 2020 - 12:15 AM EDT / 2020.07.11 0415 UTC
Wind: from the SW (220 degrees) at 3 MPH (3 KT):0
Visibility: 10 mile(s):0
Sky conditions: clear
Temperature: 69 F (21 C)
Dew Point: 62 F (17 C)
Relative Humidity: 77%
Pressure (altimeter): 29.79 in. Hg (1008 hPa)
ob: KOLE 110415Z AUTO 22003KT 10SM CLR 21/17 A2979 RMK AO2
cycle: 4

Station Type Date Time Source
KOLE TAF UTC NOAA

Error!

Example: see airport list